createdAt,value
2022-08-28T00:00:25.855Z,7.72
2022-08-28T00:02:53.938Z,10.57
2022-08-28T00:05:23.276Z,7.07
2022-08-28T00:07:50.393Z,11.93
2022-08-28T00:10:19.699Z,10.27
2022-08-28T00:12:49.413Z,8.63
2022-08-28T00:15:22.085Z,12.13
2022-08-28T00:17:49.356Z,12.30
2022-08-28T00:20:18.938Z,11.50
2022-08-28T00:22:45.999Z,11.35
2022-08-28T00:25:14.537Z,11.02
2022-08-28T00:27:53.122Z,15.02
2022-08-28T00:30:22.938Z,11.13
2022-08-28T00:32:49.951Z,14.35
2022-08-28T00:35:17.805Z,9.80
2022-08-28T00:37:46.381Z,15.82
2022-08-28T00:40:18.451Z,13.10
2022-08-28T00:42:55.653Z,19.70
2022-08-28T00:45:24.058Z,14.70
2022-08-28T00:47:51.354Z,10.35
2022-08-28T00:50:22.217Z,12.38
2022-08-28T00:52:53.085Z,11.75
2022-08-28T00:55:27.821Z,11.70
2022-08-28T00:57:59.540Z,20.90
2022-08-28T01:00:36.296Z,13.63
2022-08-28T01:03:05.605Z,11.20
2022-08-28T01:05:34.644Z,9.98
2022-08-28T01:08:04.558Z,14.35
2022-08-28T01:13:03.159Z,11.55
2022-08-28T01:15:36.771Z,11.20
2022-08-28T01:18:08.498Z,11.50
2022-08-28T01:20:40.819Z,11.45
2022-08-28T01:23:15.066Z,8.63
2022-08-28T01:25:44.964Z,12.32
2022-08-28T01:28:14.277Z,14.25
2022-08-28T01:30:44.393Z,14.38
2022-08-28T01:33:13.958Z,14.52
2022-08-28T01:35:43.932Z,10.68
2022-08-28T01:38:10.829Z,11.52
2022-08-28T01:40:40.459Z,13.05
2022-08-28T01:43:27.642Z,8.20
2022-08-28T01:45:57.569Z,14.25
2022-08-28T01:48:26.129Z,12.75
2022-08-28T01:50:52.970Z,13.40
2022-08-28T01:53:24.761Z,14.00
2022-08-28T01:55:53.300Z,13.23
2022-08-28T01:58:20.650Z,14.45
2022-08-28T02:00:47.435Z,19.77
2022-08-28T02:03:14.661Z,13.02
2022-08-28T02:05:41.869Z,16.35
2022-08-28T02:08:08.993Z,12.45
2022-08-28T02:10:37.868Z,10.00
2022-08-28T02:13:06.452Z,11.98
2022-08-28T02:15:35.291Z,20.63
2022-08-28T02:18:02.534Z,15.32
2022-08-28T02:20:30.157Z,12.77
2022-08-28T02:22:57.954Z,21.02
2022-08-28T02:25:26.026Z,14.10
2022-08-28T02:27:53.046Z,16.13
2022-08-28T02:30:19.929Z,14.98
2022-08-28T02:32:47.038Z,14.50
2022-08-28T02:35:16.285Z,12.57
2022-08-28T02:37:44.386Z,13.85
2022-08-28T02:40:16.953Z,14.40
2022-08-28T02:42:44.416Z,12.25
2022-08-28T02:45:13.705Z,13.13
2022-08-28T02:47:42.579Z,16.75
2022-08-28T02:50:11.072Z,12.75
2022-08-28T02:52:38.000Z,11.32
2022-08-28T02:55:06.230Z,17.98
2022-08-28T02:57:34.031Z,14.48
2022-08-28T03:00:00.920Z,13.93
2022-08-28T03:02:27.649Z,20.42
2022-08-28T03:04:55.425Z,19.27
2022-08-28T03:07:22.731Z,18.92
2022-08-28T03:09:50.332Z,16.00
2022-08-28T03:12:17.225Z,11.05
2022-08-28T03:14:44.089Z,17.00
2022-08-28T03:17:10.820Z,14.85
2022-08-28T03:19:37.519Z,15.52
2022-08-28T03:22:04.277Z,16.05
2022-08-28T03:24:30.911Z,19.08
2022-08-28T03:26:58.343Z,14.70
2022-08-28T03:29:24.957Z,15.27
2022-08-28T03:31:51.781Z,20.98
2022-08-28T03:34:18.458Z,18.75
2022-08-28T03:36:45.113Z,21.70
2022-08-28T03:39:11.968Z,16.98
2022-08-28T03:41:38.627Z,19.85
2022-08-28T03:44:05.270Z,18.70
2022-08-28T03:46:33.363Z,19.55
2022-08-28T03:49:02.180Z,14.82
2022-08-28T03:51:31.449Z,16.25
2022-08-28T03:53:59.601Z,17.95
2022-08-28T03:56:28.455Z,12.88
2022-08-28T03:58:58.059Z,18.13
2022-08-28T04:01:25.735Z,14.02
2022-08-28T04:03:52.480Z,17.70
2022-08-28T04:06:19.788Z,18.45
2022-08-28T04:08:47.290Z,15.02
2022-08-28T04:11:13.961Z,18.00
2022-08-28T04:13:42.077Z,20.85
2022-08-28T04:16:11.817Z,14.18
2022-08-28T04:18:41.136Z,14.70
2022-08-28T04:21:16.741Z,14.65
2022-08-28T04:23:45.037Z,22.33
2022-08-28T04:26:21.892Z,17.25
2022-08-28T04:28:49.278Z,12.60
2022-08-28T04:31:18.318Z,10.75
2022-08-28T04:33:59.269Z,12.27
2022-08-28T04:36:25.899Z,13.15
2022-08-28T04:38:52.549Z,18.95
2022-08-28T04:41:19.240Z,18.67
2022-08-28T04:43:45.980Z,13.23
2022-08-28T04:46:14.745Z,12.30
2022-08-28T04:48:42.327Z,14.23
2022-08-28T04:51:11.711Z,11.10
2022-08-28T04:53:39.058Z,18.50
2022-08-28T04:56:08.247Z,16.90
2022-08-28T04:58:35.426Z,12.30
2022-08-28T05:01:15.771Z,14.35
2022-08-28T05:03:42.522Z,15.30
2022-08-28T05:06:09.362Z,11.10
2022-08-28T05:08:36.338Z,10.57
2022-08-28T05:11:22.057Z,14.70
2022-08-28T05:14:01.055Z,15.65
2022-08-28T05:16:27.830Z,15.70
2022-08-28T05:18:54.637Z,12.52
2022-08-28T05:21:23.251Z,20.25
2022-08-28T05:23:54.616Z,16.95
2022-08-28T05:26:21.257Z,16.65
2022-08-28T05:28:48.772Z,20.13
2022-08-28T05:31:19.286Z,14.52
2022-08-28T05:33:49.873Z,14.63
2022-08-28T05:36:18.259Z,14.32
2022-08-28T05:38:45.513Z,14.00
2022-08-28T05:41:12.159Z,11.20
2022-08-28T05:43:39.474Z,18.92
2022-08-28T05:46:10.340Z,12.88
2022-08-28T05:48:39.442Z,18.50
2022-08-28T05:51:10.910Z,15.35
2022-08-28T05:53:41.126Z,15.50
2022-08-28T05:56:10.193Z,18.67
2022-08-28T05:58:37.756Z,14.07
2022-08-28T06:01:23.393Z,13.25
2022-08-28T06:03:55.336Z,19.58
2022-08-28T06:06:24.651Z,17.98
2022-08-28T06:08:58.941Z,14.65
2022-08-28T06:11:30.640Z,21.45
2022-08-28T06:14:03.737Z,21.40
2022-08-28T06:16:32.237Z,18.73
2022-08-28T06:19:00.612Z,21.42
2022-08-28T06:21:28.110Z,21.05
2022-08-28T06:23:55.071Z,22.10
2022-08-28T06:26:22.658Z,25.75
2022-08-28T06:28:49.390Z,22.38
2022-08-28T06:31:24.602Z,33.50
2022-08-28T06:33:58.028Z,18.40
2022-08-28T06:36:27.724Z,25.95
2022-08-28T06:38:58.128Z,19.98
2022-08-28T06:41:25.488Z,20.77
2022-08-28T06:43:52.184Z,20.77
2022-08-28T06:46:18.980Z,16.95
2022-08-28T06:48:45.726Z,15.48
2022-08-28T06:51:13.668Z,19.73
2022-08-28T06:53:42.915Z,27.98
2022-08-28T06:56:13.583Z,19.42
2022-08-28T06:58:42.536Z,16.17
2022-08-28T07:01:25.623Z,19.52
2022-08-28T07:03:55.642Z,17.77
2022-08-28T07:06:23.313Z,21.35
2022-08-28T07:08:51.053Z,24.23
2022-08-28T07:11:22.037Z,20.98
2022-08-28T07:13:53.416Z,16.75
2022-08-28T07:16:22.057Z,21.55
2022-08-28T07:18:48.849Z,21.38
2022-08-28T07:21:15.826Z,22.52
2022-08-28T07:23:44.177Z,23.90
2022-08-28T07:26:19.608Z,18.27
2022-08-28T07:28:47.243Z,19.00
2022-08-28T07:31:17.475Z,24.08
2022-08-28T07:33:45.048Z,23.13
2022-08-28T07:36:29.332Z,17.98
2022-08-28T07:38:58.959Z,22.85
2022-08-28T07:41:32.056Z,21.73
2022-08-28T07:44:17.997Z,19.95
2022-08-28T07:46:45.056Z,21.48
2022-08-28T07:49:15.694Z,20.63
2022-08-28T07:51:42.599Z,19.63
2022-08-28T07:54:17.681Z,22.42
2022-08-28T07:56:45.527Z,15.35
2022-08-28T07:59:14.041Z,16.88
2022-08-28T08:01:46.268Z,20.02
2022-08-28T08:04:16.155Z,19.13
2022-08-28T08:06:44.195Z,21.70
2022-08-28T08:09:13.672Z,17.67
2022-08-28T08:11:40.715Z,21.92
2022-08-28T08:14:07.569Z,20.33
2022-08-28T08:16:38.609Z,14.68
2022-08-28T08:19:06.425Z,21.77
2022-08-28T08:21:33.183Z,20.52
2022-08-28T08:23:59.973Z,13.25
2022-08-28T08:26:30.612Z,17.83
2022-08-28T08:28:58.899Z,18.77
2022-08-28T08:31:35.225Z,19.58
2022-08-28T08:34:04.517Z,18.73
2022-08-28T08:36:33.456Z,16.48
2022-08-28T08:39:00.940Z,18.73
2022-08-28T08:41:39.278Z,13.82
2022-08-28T08:44:33.273Z,13.68
2022-08-28T08:47:22.556Z,15.60
2022-08-28T08:50:24.069Z,14.40
2022-08-28T08:53:06.572Z,18.50
2022-08-28T08:55:44.873Z,20.08
2022-08-28T08:58:36.946Z,15.80
2022-08-28T09:01:31.469Z,17.70
2022-08-28T09:04:21.592Z,16.50
2022-08-28T09:07:05.589Z,19.48
2022-08-28T09:09:44.574Z,15.05
2022-08-28T09:12:19.567Z,12.23
2022-08-28T09:15:05.559Z,12.55
2022-08-28T09:17:49.336Z,17.20
2022-08-28T09:20:33.264Z,13.32
2022-08-28T09:23:00.459Z,16.63
2022-08-28T09:25:51.571Z,17.92
2022-08-28T09:28:32.113Z,20.80
2022-08-28T09:31:13.769Z,16.33
2022-08-28T09:33:45.188Z,20.55
2022-08-28T09:36:38.742Z,16.88
2022-08-28T09:39:16.586Z,17.08
2022-08-28T09:42:33.550Z,16.88
2022-08-28T09:45:16.197Z,15.90
2022-08-28T09:47:50.048Z,16.52
2022-08-28T09:50:31.259Z,19.30
2022-08-28T09:53:15.033Z,10.90
2022-08-28T09:56:14.940Z,18.20
2022-08-28T09:58:45.631Z,18.52
2022-08-28T10:01:38.692Z,16.60
2022-08-28T10:04:17.550Z,16.10
2022-08-28T10:07:12.345Z,18.38
2022-08-28T10:12:50.295Z,17.42
2022-08-28T10:15:31.524Z,12.32
2022-08-28T10:18:20.214Z,17.85
2022-08-28T10:21:23.766Z,12.20
2022-08-28T10:24:02.253Z,14.80
2022-08-28T10:26:37.943Z,18.70
2022-08-28T10:29:08.009Z,21.95
2022-08-28T10:31:56.874Z,20.23
2022-08-28T10:34:33.046Z,17.58
2022-08-28T10:37:41.777Z,18.70
2022-08-28T10:40:23.185Z,21.48
2022-08-28T10:43:03.975Z,21.00
2022-08-28T10:45:34.252Z,13.05
2022-08-28T10:48:10.221Z,18.02
2022-08-28T10:50:47.889Z,15.52
2022-08-28T10:53:19.274Z,14.50
2022-08-28T10:56:08.809Z,12.75
2022-08-28T10:58:39.501Z,12.35
2022-08-28T11:01:12.355Z,14.68
2022-08-28T11:03:47.983Z,12.13
2022-08-28T11:06:38.782Z,14.52
2022-08-28T11:09:27.153Z,12.75
2022-08-28T11:12:21.246Z,11.98
2022-08-28T11:14:50.989Z,17.15
2022-08-28T11:17:27.636Z,14.00
2022-08-28T11:20:17.774Z,13.10
2022-08-28T11:22:55.538Z,9.13
2022-08-28T11:25:47.946Z,9.95
2022-08-28T11:28:15.152Z,12.48
2022-08-28T11:30:45.697Z,11.02
2022-08-28T11:33:34.300Z,14.02
2022-08-28T11:36:01.295Z,12.73
2022-08-28T11:38:43.607Z,11.93
2022-08-28T11:41:27.464Z,13.30
2022-08-28T11:44:09.503Z,17.10
2022-08-28T11:47:16.347Z,13.27
2022-08-28T11:49:44.865Z,14.52
2022-08-28T11:52:23.416Z,12.18
2022-08-28T11:55:08.141Z,16.08
2022-08-28T12:00:56.693Z,15.77
2022-08-28T12:03:40.575Z,14.55
2022-08-28T12:06:08.710Z,12.10
2022-08-28T12:08:51.338Z,11.88
2022-08-28T12:11:39.843Z,10.65
2022-08-28T12:14:27.466Z,10.50
2022-08-28T12:17:03.331Z,12.23
2022-08-28T12:19:41.165Z,16.67
2022-08-28T12:22:22.768Z,9.93
2022-08-28T12:25:02.177Z,8.88
2022-08-28T12:27:30.174Z,12.52
2022-08-28T12:29:59.249Z,10.77
2022-08-28T12:32:37.976Z,14.02
2022-08-28T12:35:29.908Z,13.32
2022-08-28T12:37:57.412Z,11.93
2022-08-28T12:40:33.983Z,12.80
2022-08-28T12:43:09.887Z,9.77
2022-08-28T12:45:51.247Z,15.50
2022-08-28T12:48:31.539Z,9.68
2022-08-28T12:51:03.370Z,10.95
2022-08-28T12:53:39.182Z,12.45
2022-08-28T12:56:09.102Z,11.98
2022-08-28T12:58:39.336Z,10.98
2022-08-28T13:01:35.130Z,12.35
2022-08-28T13:06:45.458Z,10.35
2022-08-28T13:09:35.079Z,12.70
2022-08-28T13:12:02.142Z,8.30
2022-08-28T13:14:48.446Z,11.25
2022-08-28T13:17:48.981Z,10.15
2022-08-28T13:20:31.143Z,12.88
2022-08-28T13:22:58.755Z,15.32
2022-08-28T13:25:28.970Z,13.07
2022-08-28T13:27:58.182Z,9.43
2022-08-28T13:30:29.780Z,15.15
2022-08-28T13:33:03.113Z,9.48
2022-08-28T13:35:36.854Z,14.48
2022-08-28T13:38:08.369Z,13.77
2022-08-28T14:06:50.876Z,12.15
2022-08-28T14:09:17.956Z,11.73
2022-08-28T14:11:46.320Z,15.35
2022-08-28T14:14:13.823Z,14.73
2022-08-28T14:16:40.670Z,10.02
2022-08-28T14:19:07.635Z,11.88
2022-08-28T14:21:37.292Z,12.95
2022-08-28T14:24:04.944Z,13.55
2022-08-28T14:26:31.978Z,8.93
2022-08-28T14:29:00.044Z,11.73
2022-08-28T14:31:28.702Z,12.13
2022-08-28T14:33:57.465Z,11.23
2022-08-28T14:36:30.064Z,10.80
2022-08-28T14:39:09.594Z,11.63
2022-08-28T14:44:36.261Z,14.50
2022-08-28T14:47:04.212Z,11.32
2022-08-28T14:49:36.727Z,13.63
2022-08-28T14:52:07.914Z,8.32
2022-08-28T14:54:53.465Z,11.05
2022-08-28T14:57:26.787Z,10.38
2022-08-28T14:59:53.633Z,12.70
2022-08-28T15:02:20.484Z,10.07
2022-08-28T15:04:47.202Z,9.00
2022-08-28T15:07:15.381Z,10.13
2022-08-28T15:09:43.747Z,12.73
2022-08-28T15:12:11.199Z,10.60
2022-08-28T15:14:38.034Z,9.75
2022-08-28T15:17:05.575Z,9.27
2022-08-28T15:19:32.703Z,7.63
2022-08-28T15:22:00.464Z,10.88
2022-08-28T15:24:30.897Z,8.45
2022-08-28T15:26:59.433Z,10.15
2022-08-28T15:29:27.967Z,9.00
2022-08-28T15:31:54.791Z,9.57
2022-08-28T15:34:25.080Z,11.07
2022-08-28T15:36:54.755Z,13.93
2022-08-28T15:39:45.302Z,10.85
2022-08-28T15:42:12.503Z,10.90
2022-08-28T15:44:39.570Z,10.32
2022-08-28T15:47:06.629Z,9.57
2022-08-28T15:49:36.184Z,9.90
2022-08-28T15:52:11.165Z,7.07
2022-08-28T15:54:38.118Z,7.63
2022-08-28T15:57:05.089Z,9.63
2022-08-28T15:59:48.418Z,8.82
2022-08-28T16:02:16.523Z,11.27
2022-08-28T16:04:43.283Z,9.25
2022-08-28T16:07:09.931Z,11.45
2022-08-28T16:09:36.718Z,10.57
2022-08-28T16:12:03.608Z,9.27
2022-08-28T16:14:32.745Z,13.25
2022-08-28T16:16:59.624Z,10.82
2022-08-28T16:19:32.725Z,7.63
2022-08-28T16:21:59.433Z,12.10
2022-08-28T16:24:26.094Z,8.63
2022-08-28T16:26:52.731Z,10.52
2022-08-28T16:29:19.640Z,10.75
2022-08-28T16:31:47.962Z,11.15
2022-08-28T16:34:15.939Z,12.02
2022-08-28T16:36:48.147Z,13.20
2022-08-28T16:39:15.057Z,7.65
2022-08-28T16:41:42.174Z,17.20
2022-08-28T16:44:09.025Z,8.52
2022-08-28T16:46:35.842Z,11.88
2022-08-28T16:49:02.740Z,8.05
2022-08-28T16:51:29.731Z,11.50
2022-08-28T16:53:57.132Z,10.32
2022-08-28T16:56:24.434Z,12.35
2022-08-28T16:58:53.038Z,9.00
2022-08-28T17:01:24.240Z,11.82
2022-08-28T17:03:54.663Z,11.40
2022-08-28T17:06:28.368Z,11.23
2022-08-28T17:08:57.172Z,7.38
2022-08-28T17:11:28.513Z,9.07
2022-08-28T17:13:55.883Z,10.00
2022-08-28T17:16:23.983Z,8.82
2022-08-28T17:18:52.403Z,8.27
2022-08-28T17:21:39.236Z,8.65
2022-08-28T17:24:06.740Z,9.63
2022-08-28T17:26:33.526Z,11.25
2022-08-28T17:29:00.721Z,8.68
2022-08-28T17:31:27.612Z,8.68
2022-08-28T17:33:54.513Z,7.88
2022-08-28T17:36:33.585Z,10.05
2022-08-28T17:39:02.585Z,9.27
2022-08-28T17:41:29.305Z,14.25
2022-08-28T17:43:56.091Z,9.88
2022-08-28T17:46:22.783Z,6.57
2022-08-28T17:48:55.936Z,9.70
2022-08-28T17:51:36.898Z,7.65
2022-08-28T17:54:13.956Z,8.00
2022-08-28T17:56:41.293Z,7.32
2022-08-28T17:59:08.261Z,7.60
2022-08-28T18:01:34.983Z,9.10
2022-08-28T18:04:01.692Z,9.10
2022-08-28T18:06:28.512Z,8.80
2022-08-28T18:08:55.177Z,7.70
2022-08-28T18:11:21.817Z,7.22
2022-08-28T18:13:48.516Z,13.57
2022-08-28T18:16:15.443Z,13.25
2022-08-28T18:18:42.469Z,9.52
2022-08-28T18:21:11.164Z,13.60
2022-08-28T18:23:39.740Z,8.13
2022-08-28T18:26:09.540Z,9.00
2022-08-28T18:28:36.931Z,11.70
2022-08-28T18:31:06.331Z,13.10
2022-08-28T18:33:33.944Z,10.13
2022-08-28T18:36:00.932Z,9.75
2022-08-28T18:38:28.542Z,10.65
2022-08-28T18:40:56.091Z,9.63
2022-08-28T18:43:23.896Z,13.30
2022-08-28T18:45:51.313Z,10.02
2022-08-28T18:48:19.152Z,9.73
2022-08-28T18:50:47.952Z,9.25
2022-08-28T18:53:16.213Z,32.05
2022-08-28T18:55:43.249Z,21.25
2022-08-28T18:58:12.491Z,16.23
2022-08-28T19:00:42.621Z,11.77
2022-08-28T19:03:09.556Z,11.73
2022-08-28T19:05:37.485Z,12.07
2022-08-28T19:08:04.881Z,9.95
2022-08-28T19:10:34.361Z,14.80
2022-08-28T19:13:02.226Z,12.73
2022-08-28T19:15:29.499Z,7.43
2022-08-28T19:17:56.734Z,10.95
2022-08-28T19:20:23.910Z,12.60
2022-08-28T19:22:50.544Z,10.40
2022-08-28T19:25:28.565Z,10.07
2022-08-28T19:27:59.751Z,10.80
2022-08-28T19:30:29.255Z,8.50
2022-08-28T19:32:55.921Z,8.85
2022-08-28T19:35:24.321Z,13.98
2022-08-28T19:37:52.053Z,12.40
2022-08-28T19:40:19.391Z,15.57
2022-08-28T19:42:46.261Z,8.75
2022-08-28T19:45:13.911Z,13.48
2022-08-28T19:47:40.720Z,10.07
2022-08-28T19:50:09.931Z,9.35
2022-08-28T19:52:36.788Z,13.02
2022-08-28T19:55:06.045Z,16.83
2022-08-28T19:57:33.603Z,16.73
2022-08-28T20:00:00.507Z,13.48
2022-08-28T20:02:28.483Z,8.13
2022-08-28T20:04:55.360Z,14.02
2022-08-28T20:07:22.209Z,10.68
2022-08-28T20:09:48.905Z,9.25
2022-08-28T20:12:16.044Z,9.93
2022-08-28T20:14:44.600Z,8.55
2022-08-28T20:17:11.389Z,8.30
2022-08-28T20:19:38.538Z,7.80
2022-08-28T20:22:05.838Z,8.98
2022-08-28T20:24:32.529Z,11.32
2022-08-28T20:26:59.416Z,10.95
2022-08-28T20:29:26.220Z,8.38
2022-08-28T20:31:54.091Z,10.00
2022-08-28T20:34:21.463Z,10.40
2022-08-28T20:36:48.617Z,11.75
2022-08-28T20:39:16.696Z,6.60
2022-08-28T20:41:44.641Z,11.77
2022-08-28T20:44:13.528Z,12.65
2022-08-28T20:46:41.978Z,12.63
2022-08-28T20:49:10.844Z,7.85
2022-08-28T20:51:53.205Z,11.85
2022-08-28T20:54:21.547Z,14.60
2022-08-28T20:56:49.209Z,10.07
2022-08-28T20:59:16.100Z,11.40
2022-08-28T21:01:42.844Z,17.25
2022-08-28T21:04:09.850Z,8.10
2022-08-28T21:06:38.176Z,9.43
2022-08-28T21:09:04.918Z,7.53
2022-08-28T21:11:31.576Z,10.55
2022-08-28T21:13:58.310Z,9.52
2022-08-28T21:16:24.975Z,12.50
2022-08-28T21:19:14.506Z,9.38
2022-08-28T21:21:38.744Z,9.38
2022-08-28T21:24:08.009Z,7.68
2022-08-28T21:26:37.481Z,10.63
2022-08-28T21:29:07.769Z,13.30
2022-08-28T21:31:34.764Z,13.68
2022-08-28T21:34:01.946Z,10.57
2022-08-28T21:36:28.608Z,6.15
2022-08-28T21:38:57.041Z,10.60
2022-08-28T21:41:23.798Z,7.68
2022-08-28T21:43:50.410Z,15.65
2022-08-28T21:46:17.248Z,7.78
2022-08-28T21:48:47.274Z,12.45
2022-08-28T21:51:15.208Z,10.18
2022-08-28T21:53:43.039Z,11.70
2022-08-28T21:56:10.493Z,11.20
2022-08-28T21:58:40.930Z,10.85
2022-08-28T22:01:12.879Z,9.80
2022-08-28T22:03:41.223Z,11.68
2022-08-28T22:06:13.456Z,10.57
2022-08-28T22:08:41.030Z,11.43
2022-08-28T22:11:09.102Z,9.40
2022-08-28T22:13:37.123Z,12.95
2022-08-28T22:16:05.054Z,10.45
2022-08-28T22:18:34.468Z,12.52
2022-08-28T22:21:20.468Z,11.63
2022-08-28T22:23:47.531Z,14.40
2022-08-28T22:26:20.105Z,15.15
2022-08-28T22:28:48.073Z,11.27
2022-08-28T22:31:14.896Z,10.60
2022-08-28T22:33:42.911Z,9.38
2022-08-28T22:36:10.780Z,7.30
2022-08-28T22:38:39.251Z,10.55
2022-08-28T22:41:07.422Z,9.98
2022-08-28T22:43:34.842Z,8.70
2022-08-28T22:46:01.930Z,9.93
2022-08-28T22:48:28.652Z,11.85
2022-08-28T22:51:06.287Z,9.23
2022-08-28T22:53:33.017Z,8.40
2022-08-28T22:56:00.689Z,12.93
2022-08-28T22:58:32.368Z,9.50
2022-08-28T23:01:01.786Z,13.10
2022-08-28T23:03:29.057Z,8.25
2022-08-28T23:05:56.103Z,9.95
2022-08-28T23:08:22.973Z,11.50
2022-08-28T23:10:58.945Z,8.00
2022-08-28T23:13:26.383Z,9.68
2022-08-28T23:15:53.176Z,10.05
2022-08-28T23:18:20.589Z,7.00
2022-08-28T23:20:47.565Z,10.48
2022-08-28T23:23:17.456Z,9.57
2022-08-28T23:25:44.595Z,10.23
2022-08-28T23:28:11.410Z,7.50
2022-08-28T23:30:39.064Z,8.38
2022-08-28T23:33:08.404Z,7.50
2022-08-28T23:35:35.840Z,8.00
2022-08-28T23:38:04.297Z,11.50
2022-08-28T23:40:33.940Z,13.63
2022-08-28T23:43:02.771Z,6.63
2022-08-28T23:45:29.538Z,9.07
2022-08-28T23:47:56.575Z,14.30
2022-08-28T23:50:23.755Z,10.00
2022-08-28T23:52:52.259Z,10.15
2022-08-28T23:55:20.839Z,7.85
2022-08-28T23:57:47.988Z,7.10
